Time;durP1;ratioP1;P1;durP2;ratioP2;P2;SDS_P1;SDS_P2;PMS_P1;PMS_P2;Temp;Humidity;BMP_temperature;BMP_pressure;BME280_temperature;BME280_humidity;BME280_pressure;Samples;Min_cycle;Max_cycle;Signal;HPM_P1;HPM_P2
2022/04/06 00:00:09;;;;;;;8.13;6.32;;;;;;;9.95;nan;94678.63;5005034;28;20208;-70
2022/04/06 00:02:37;;;;;;;7.35;5.93;;;;;;;9.83;nan;94679.09;5005364;28;20208;-70
2022/04/06 00:05:05;;;;;;;8.27;6.18;;;;;;;9.81;nan;94675.78;5004394;28;20267;-71
2022/04/06 00:07:32;;;;;;;9.43;6.10;;;;;;;9.65;nan;94679.78;5003140;28;20289;-71
2022/04/06 00:09:59;;;;;;;12.15;6.47;;;;;;;9.93;nan;94677.88;5005115;28;20254;-72
2022/04/06 00:12:27;;;;;;;10.30;5.57;;;;;;;9.67;nan;94681.34;5003704;28;20236;-71
2022/04/06 00:14:54;;;;;;;12.38;6.68;;;;;;;9.76;nan;94662.44;5004134;28;21243;-70
2022/04/06 00:17:21;;;;;;;6.20;5.53;;;;;;;9.92;nan;94677.91;5003655;28;20279;-73
2022/04/06 00:19:47;;;;;;;10.57;6.13;;;;;;;9.96;nan;94677.75;5004157;28;20207;-72
2022/04/06 00:22:14;;;;;;;9.85;5.82;;;;;;;10.10;nan;94683.16;5004915;28;20199;-71
2022/04/06 00:24:41;;;;;;;10.40;6.38;;;;;;;9.98;nan;94663.28;5004196;28;20731;-71
2022/04/06 00:27:08;;;;;;;15.45;6.20;;;;;;;9.95;nan;94682.88;5005721;28;20974;-71
2022/04/06 00:29:36;;;;;;;6.53;5.47;;;;;;;9.80;nan;94679.22;5003758;28;20215;-71
2022/04/06 00:32:04;;;;;;;13.30;5.95;;;;;;;9.67;nan;94678.00;5004401;28;20208;-71
2022/04/06 00:37:15;;;;;;;8.85;6.28;;;;;;;9.69;nan;94693.97;5003858;28;22215;-71
2022/04/06 00:39:42;;;;;;;9.35;6.32;;;;;;;9.39;nan;94689.13;5003731;28;21279;-70
2022/04/06 00:42:09;;;;;;;8.15;5.78;;;;;;;9.50;nan;94687.03;5003622;28;20571;-70
2022/04/06 00:44:37;;;;;;;9.13;6.20;;;;;;;9.28;nan;94696.28;5002964;28;21110;-70
2022/04/06 00:47:05;;;;;;;9.20;6.18;;;;;;;8.81;nan;94701.22;5003891;28;20765;-70
2022/04/06 00:49:33;;;;;;;8.52;6.57;;;;;;;8.81;nan;94698.69;5003946;28;20203;-71
2022/04/06 00:52:02;;;;;;;14.15;6.70;;;;;;;9.00;nan;94688.78;5002909;28;20254;-71
2022/04/06 00:54:30;;;;;;;14.98;6.90;;;;;;;8.88;nan;94703.56;5004821;28;20213;-70
2022/04/06 00:56:58;;;;;;;11.88;7.35;;;;;;;8.98;nan;94703.19;5002675;28;20604;-72
2022/04/06 00:59:26;;;;;;;22.80;7.60;;;;;;;8.95;nan;94697.41;5002312;28;20289;-73
2022/04/06 01:01:55;;;;;;;10.55;7.28;;;;;;;9.04;nan;94702.19;5003936;28;20200;-71
2022/04/06 01:04:22;;;;;;;12.73;7.22;;;;;;;9.20;nan;94704.13;5006271;28;20208;-71
2022/04/06 01:06:49;;;;;;;9.85;6.53;;;;;;;9.28;nan;94700.53;5006276;28;20710;-71
2022/04/06 01:09:16;;;;;;;11.98;7.60;;;;;;;9.25;nan;94701.44;5007247;28;20344;-72
2022/04/06 01:11:46;;;;;;;14.45;7.72;;;;;;;9.33;nan;94699.50;5006611;28;20262;-72
2022/04/06 01:14:13;;;;;;;8.38;7.10;;;;;;;9.35;nan;94700.25;5007411;28;20199;-71
2022/04/06 01:16:40;;;;;;;12.55;7.18;;;;;;;9.41;nan;94697.50;5005741;28;20211;-72
2022/04/06 01:19:08;;;;;;;14.18;8.07;;;;;;;9.38;nan;94697.63;5005039;28;21193;-70
2022/04/06 01:21:35;;;;;;;14.77;7.07;;;;;;;9.28;nan;94691.22;5004726;28;20209;-71
2022/04/06 01:24:04;;;;;;;14.02;7.90;;;;;;;9.26;nan;94695.50;5006781;28;20254;-72
2022/04/06 01:26:34;;;;;;;8.48;6.30;;;;;;;9.31;nan;94701.25;5005395;28;20281;-71
2022/04/06 01:29:01;;;;;;;12.55;7.38;;;;;;;9.31;nan;94701.25;5006471;28;20242;-72
2022/04/06 01:31:28;;;;;;;8.80;6.18;;;;;;;9.39;nan;94689.13;5006334;28;20266;-71
2022/04/06 01:33:55;;;;;;;7.85;6.97;;;;;;;9.28;nan;94691.22;5005977;28;20204;-70
2022/04/06 01:36:22;;;;;;;11.52;7.00;;;;;;;8.85;nan;94687.59;5004089;28;20555;-70
2022/04/06 01:38:49;;;;;;;7.15;6.13;;;;;;;8.94;nan;94696.56;5006279;28;20577;-71
2022/04/06 01:41:17;;;;;;;11.32;5.82;;;;;;;8.80;nan;94694.50;5005436;28;21294;-71
2022/04/06 01:43:44;;;;;;;10.73;6.22;;;;;;;8.71;nan;94699.84;5006168;28;20220;-73
2022/04/06 01:46:11;;;;;;;9.85;6.10;;;;;;;8.79;nan;94697.91;5004913;28;20228;-73
2022/04/06 01:52:11;;;;;;;7.13;5.07;;;;;;;8.77;nan;94694.59;5005272;28;20635;-71
2022/04/06 01:54:08;;;;;;;12.10;5.72;;;;;;;9.12;nan;94697.69;5006235;28;20393;-72
2022/04/06 01:56:36;;;;;;;8.25;5.80;;;;;;;9.05;nan;94694.53;5004198;28;20670;-71
2022/04/06 01:59:03;;;;;;;7.40;6.70;;;;;;;8.91;nan;94698.41;5005910;28;20249;-71
2022/04/06 02:01:30;;;;;;;14.45;7.53;;;;;;;8.94;nan;94700.81;5004802;28;20204;-70
2022/04/06 02:03:58;;;;;;;10.07;6.45;;;;;;;8.91;nan;94696.66;5006445;28;20754;-71
2022/04/06 02:06:27;;;;;;;10.50;7.15;;;;;;;8.79;nan;94708.06;5004722;28;20242;-70
2022/04/06 02:08:53;;;;;;;10.38;6.47;;;;;;;8.85;nan;94709.56;5005756;28;20583;-71
2022/04/06 02:11:20;;;;;;;9.38;6.25;;;;;;;8.67;nan;94700.81;5005213;28;20199;-71
2022/04/06 02:13:49;;;;;;;9.00;6.53;;;;;;;8.76;nan;94702.25;5006000;28;21329;-71
2022/04/06 02:16:15;;;;;;;12.07;7.65;;;;;;;8.82;nan;94707.94;5006204;28;20574;-71
2022/04/06 02:18:42;;;;;;;11.38;7.10;;;;;;;8.71;nan;94709.16;5005612;28;20269;-71
2022/04/06 02:21:09;;;;;;;10.63;6.88;;;;;;;8.93;nan;94709.28;5005610;28;20207;-72
2022/04/06 02:23:36;;;;;;;12.25;7.00;;;;;;;8.91;nan;94706.81;5004599;28;20219;-71
2022/04/06 02:26:02;;;;;;;12.20;7.35;;;;;;;9.11;nan;94703.63;5004535;28;21197;-71
2022/04/06 02:28:29;;;;;;;11.73;7.50;;;;;;;9.17;nan;94713.53;5005429;28;20258;-70
2022/04/06 02:30:57;;;;;;;7.78;6.10;;;;;;;8.97;nan;94713.38;5004582;28;20208;-70
2022/04/06 02:33:24;;;;;;;14.82;7.30;;;;;;;8.82;nan;94699.53;5005746;28;20211;-71
2022/04/06 02:35:51;;;;;;;10.25;6.75;;;;;;;8.47;nan;94720.88;5004397;28;20211;-70
2022/04/06 02:38:18;;;;;;;13.18;7.45;;;;;;;8.12;nan;94715.19;5003824;28;20218;-71
2022/04/06 02:40:46;;;;;;;10.77;7.18;;;;;;;8.28;nan;94719.78;5002597;28;20204;-71
2022/04/06 02:43:13;;;;;;;8.00;6.88;;;;;;;8.59;nan;94720.53;4987419;28;20211;-71
2022/04/06 02:45:40;;;;;;;9.85;6.40;;;;;;;8.70;nan;94717.63;5002433;28;20558;-72
2022/04/06 02:48:08;;;;;;;9.50;6.82;;;;;;;8.84;nan;94718.88;5003668;28;20746;-71
2022/04/06 02:50:35;;;;;;;14.57;6.93;;;;;;;8.25;nan;94720.69;5003516;28;21015;-71
2022/04/06 02:53:01;;;;;;;13.85;7.43;;;;;;;8.22;nan;94719.94;5004726;28;20211;-71
2022/04/06 02:55:28;;;;;;;14.60;7.82;;;;;;;8.34;nan;94727.22;5005240;28;20203;-71
2022/04/06 02:57:55;;;;;;;13.07;7.93;;;;;;;8.57;nan;94727.34;5003460;28;20249;-71
2022/04/06 03:00:22;;;;;;;17.55;8.38;;;;;;;8.65;nan;94730.47;5004061;28;20200;-71
2022/04/06 03:02:50;;;;;;;17.02;9.65;;;;;;;8.53;nan;94728.31;5006189;28;20199;-71
2022/04/06 03:05:18;;;;;;;14.90;7.60;;;;;;;8.56;nan;94740.06;5004367;28;20192;-71
2022/04/06 03:07:45;;;;;;;15.75;8.50;;;;;;;8.45;nan;94732.78;5003237;28;20262;-71
2022/04/06 03:10:11;;;;;;;21.73;9.00;;;;;;;8.32;nan;94731.47;5003846;28;20273;-73
2022/04/06 03:12:38;;;;;;;12.23;8.07;;;;;;;8.18;nan;94735.22;5002997;28;20801;-71
2022/04/06 03:15:06;;;;;;;13.73;8.93;;;;;;;8.08;nan;94711.06;5003570;28;20285;-73
2022/04/06 03:17:33;;;;;;;15.23;9.45;;;;;;;8.31;nan;94712.09;5002860;28;20219;-71
2022/04/06 03:20:01;;;;;;;22.42;9.65;;;;;;;8.41;nan;94732.03;5003547;28;20231;-71
2022/04/06 03:22:29;;;;;;;13.80;9.50;;;;;;;8.23;nan;94742.69;5002011;28;20601;-72
2022/04/06 03:24:56;;;;;;;13.77;8.63;;;;;;;8.15;nan;94716.78;5002999;28;21138;-70
2022/04/06 03:27:23;;;;;;;13.77;10.10;;;;;;;8.17;nan;94748.75;5001790;28;20224;-72
2022/04/06 03:29:50;;;;;;;12.48;9.50;;;;;;;8.17;nan;94748.75;5003234;28;21233;-71
2022/04/06 03:32:17;;;;;;;15.30;10.38;;;;;;;8.09;nan;94744.81;5002235;28;22466;-70
2022/04/06 03:34:43;;;;;;;12.32;9.27;;;;;;;8.06;nan;94750.78;5003068;28;20266;-70
2022/04/06 03:37:10;;;;;;;16.63;10.35;;;;;;;8.19;nan;94731.81;5002384;28;20274;-70
2022/04/06 03:39:38;;;;;;;17.52;9.80;;;;;;;8.12;nan;94732.06;5004676;28;20200;-71
2022/04/06 03:42:06;;;;;;;52.47;26.80;;;;;;;8.12;nan;94754.84;5004222;28;20219;-71
2022/04/06 03:44:33;;;;;;;26.13;12.38;;;;;;;7.98;nan;94759.44;5003985;28;20335;-72
2022/04/06 03:46:59;;;;;;;20.98;10.52;;;;;;;7.69;nan;94766.16;5002540;28;20242;-72
2022/04/06 03:49:26;;;;;;;28.23;15.05;;;;;;;7.63;nan;94760.44;5003996;28;20649;-72
2022/04/06 03:51:53;;;;;;;20.90;11.80;;;;;;;7.44;nan;94765.97;5003671;28;20257;-70
2022/04/06 03:54:20;;;;;;;14.70;8.63;;;;;;;7.12;nan;94766.81;5004739;28;20258;-74
2022/04/06 03:56:49;;;;;;;12.57;6.07;;;;;;;6.85;nan;94759.06;5003559;28;20298;-71
2022/04/06 03:59:16;;;;;;;10.50;6.45;;;;;;;7.05;nan;94756.88;5003436;28;20210;-73
2022/04/06 04:01:43;;;;;;;7.03;6.03;;;;;;;7.32;nan;94768.81;5004158;28;20215;-71
2022/04/06 04:04:10;;;;;;;7.13;5.72;;;;;;;7.27;nan;94768.09;5002908;28;20643;-71
2022/04/06 04:06:37;;;;;;;8.57;5.18;;;;;;;7.43;nan;94774.41;5003124;28;20207;-72
2022/04/06 04:09:05;;;;;;;6.10;5.30;;;;;;;7.33;nan;94757.84;5004325;28;20214;-70
2022/04/06 04:11:33;;;;;;;7.45;6.30;;;;;;;7.40;nan;94759.34;5003278;28;20227;-71
2022/04/06 04:14:01;;;;;;;11.15;5.78;;;;;;;7.48;nan;94772.59;5007429;28;20607;-71
2022/04/06 04:16:28;;;;;;;8.70;5.93;;;;;;;7.65;nan;94787.34;5006892;28;20547;-71
2022/04/06 04:18:55;;;;;;;17.52;7.97;;;;;;;7.90;nan;94776.56;5007288;28;22539;-71
2022/04/06 04:21:34;;;;;;;39.05;15.95;;;;;;;7.79;nan;94787.78;5006544;28;20196;-71
2022/04/06 04:24:02;;;;;;;18.95;10.50;;;;;;;7.85;nan;94792.69;5005873;28;20721;-73
2022/04/06 04:26:29;;;;;;;22.98;8.40;;;;;;;7.61;nan;94795.88;5005408;28;20690;-72
2022/04/06 04:28:56;;;;;;;17.38;8.02;;;;;;;7.78;nan;94790.38;5007782;28;20285;-73
2022/04/06 04:31:24;;;;;;;17.30;8.77;;;;;;;8.16;nan;94794.38;5007320;28;20204;-72
2022/04/06 04:33:51;;;;;;;21.70;7.75;;;;;;;8.24;nan;94801.72;5004150;28;20204;-72
2022/04/06 04:36:19;;;;;;;12.50;7.63;;;;;;;7.98;nan;94803.28;5004286;28;20269;-71
2022/04/06 04:38:46;;;;;;;25.35;8.70;;;;;;;8.28;nan;94806.66;5004381;28;21802;-71
2022/04/06 04:41:13;;;;;;;14.95;8.48;;;;;;;8.89;nan;94804.88;5007171;28;20203;-74
2022/04/06 04:43:41;;;;;;;16.08;8.82;;;;;;;10.71;nan;94807.84;5005375;28;20208;-72
2022/04/06 04:46:08;;;;;;;13.30;5.63;;;;;;;12.35;nan;94809.63;5003673;28;20215;-73
2022/04/06 04:48:37;;;;;;;14.05;5.68;;;;;;;12.51;nan;94815.66;5003439;28;20376;-73
2022/04/06 04:51:04;;;;;;;8.32;5.95;;;;;;;13.04;nan;94804.72;5006900;28;20599;-72
2022/04/06 04:53:32;;;;;;;13.63;6.60;;;;;;;14.79;nan;94800.97;5005462;28;20285;-71
2022/04/06 04:55:59;;;;;;;11.48;5.80;;;;;;;15.84;nan;94802.75;5005376;28;20325;-71
2022/04/06 04:58:27;;;;;;;11.27;6.18;;;;;;;14.83;nan;94810.97;5007168;28;20204;-73
2022/04/06 05:00:54;;;;;;;13.52;6.43;;;;;;;16.39;nan;94814.88;5006721;28;20206;-71
2022/04/06 05:03:21;;;;;;;11.00;7.20;;;;;;;17.38;nan;94819.81;5007457;28;20207;-71
2022/04/06 05:05:51;;;;;;;13.55;8.13;;;;;;;18.08;nan;94814.41;5006960;28;20200;-70
2022/04/06 05:08:18;;;;;;;18.08;8.75;;;;;;;18.05;nan;94825.75;5007399;28;20297;-71
2022/04/06 05:10:45;;;;;;;14.15;8.18;;;;;;;18.32;nan;94826.44;5006478;28;20203;-73
2022/04/06 05:13:13;;;;;;;10.90;8.10;;;;;;;19.39;nan;94831.88;5005913;28;20236;-71
2022/04/06 05:15:40;;;;;;;12.73;7.78;;;;;;;19.39;nan;94811.28;5005934;28;21045;-73
2022/04/06 05:18:07;;;;;;;12.23;8.00;;;;;;;20.37;nan;94828.94;5007129;28;20199;-72
2022/04/06 05:20:34;;;;;;;21.27;8.32;;;;;;;20.98;nan;94837.16;5007286;28;20215;-74
2022/04/06 05:23:02;;;;;;;13.45;7.47;;;;;;;21.85;nan;94837.16;5007033;28;20775;-72
2022/04/06 05:25:29;;;;;;;11.63;7.40;;;;;;;20.38;nan;94840.91;5007102;28;20200;-72
2022/04/06 05:27:57;;;;;;;10.57;7.72;;;;;;;19.72;nan;94838.97;5007252;28;20235;-73
2022/04/06 05:30:26;;;;;;;9.93;7.47;;;;;;;20.26;nan;94839.25;5007424;28;20203;-72
2022/04/06 05:32:54;;;;;;;11.93;7.22;;;;;;;22.30;nan;94842.94;5006864;28;20730;-72
2022/04/06 05:35:22;;;;;;;16.42;8.23;;;;;;;23.93;nan;94836.59;5005966;28;20218;-73
2022/04/06 05:37:48;;;;;;;10.82;7.93;;;;;;;25.55;nan;94838.78;5006806;28;20556;-74
2022/04/06 05:40:18;;;;;;;15.05;10.15;;;;;;;25.62;nan;94839.00;5007528;28;20201;-72
2022/04/06 05:42:45;;;;;;;17.50;10.05;;;;;;;23.94;nan;94843.44;5006745;28;20207;-73
2022/04/06 05:45:13;;;;;;;20.08;9.77;;;;;;;24.12;nan;94846.16;5006473;28;20208;-73
2022/04/06 05:47:40;;;;;;;28.60;14.57;;;;;;;24.86;nan;94848.84;5005452;28;20777;-75
2022/04/06 05:50:08;;;;;;;15.23;10.30;;;;;;;24.60;nan;94840.88;5007455;28;20217;-73
2022/04/06 05:52:35;;;;;;;11.40;8.82;;;;;;;24.74;nan;94845.63;5006760;28;20658;-73
2022/04/06 05:55:03;;;;;;;16.40;9.98;;;;;;;26.10;nan;94843.84;5007863;28;20265;-75
2022/04/06 05:57:31;;;;;;;18.05;10.18;;;;;;;25.87;nan;94850.50;5004454;28;20377;-74
2022/04/06 05:59:58;;;;;;;16.55;10.25;;;;;;;26.11;nan;94853.31;5005792;28;20636;-73
2022/04/06 06:02:25;;;;;;;16.70;9.85;;;;;;;26.63;nan;94845.56;5006196;28;20927;-72
2022/04/06 06:04:52;;;;;;;19.30;10.23;;;;;;;25.59;nan;94855.72;5005470;28;20203;-73
2022/04/06 06:07:20;;;;;;;17.95;10.10;;;;;;;26.73;nan;94843.63;5004832;28;20203;-73
2022/04/06 06:09:47;;;;;;;22.13;10.93;;;;;;;27.57;nan;94848.88;5005435;28;20298;-75
2022/04/06 06:12:14;;;;;;;19.60;11.63;;;;;;;27.04;nan;94834.38;5004825;28;20239;-72
2022/04/06 06:14:42;;;;;;;17.08;13.07;;;;;;;27.67;nan;94844.38;5006325;28;20212;-73
2022/04/06 06:17:09;;;;;;;10.93;9.80;;;;;;;29.56;nan;94847.34;5004911;28;20671;-72
2022/04/06 06:19:36;;;;;;;16.52;9.13;;;;;;;27.72;nan;94844.69;5006327;28;20195;-73
2022/04/06 06:22:04;;;;;;;11.10;8.75;;;;;;;27.39;nan;94848.19;5004656;28;20682;-72
2022/04/06 06:24:31;;;;;;;16.02;8.82;;;;;;;27.03;nan;94840.56;5006154;28;20208;-73
2022/04/06 06:26:58;;;;;;;15.70;9.43;;;;;;;28.00;nan;94839.97;5004372;28;20203;-73
2022/04/06 06:29:25;;;;;;;12.40;9.57;;;;;;;28.36;nan;94839.69;5005420;28;20600;-72
2022/04/06 06:31:54;;;;;;;14.63;9.93;;;;;;;28.39;nan;94841.97;5004120;28;20253;-74
2022/04/06 06:34:21;;;;;;;11.07;9.82;;;;;;;26.15;nan;94836.41;5005592;28;20884;-73
2022/04/06 06:36:48;;;;;;;11.27;9.88;;;;;;;29.03;nan;94838.41;5005882;28;20211;-73
2022/04/06 06:39:15;;;;;;;23.67;13.30;;;;;;;28.93;nan;94816.88;5005588;28;20675;-73
2022/04/06 06:41:43;;;;;;;18.38;9.65;;;;;;;28.34;nan;94844.25;5004885;28;20203;-71
2022/04/06 06:44:11;;;;;;;10.93;8.65;;;;;;;29.28;nan;94833.06;5006263;28;20663;-71
2022/04/06 06:46:38;;;;;;;13.38;8.57;;;;;;;27.91;nan;94834.94;5004685;28;20215;-71
2022/04/06 06:49:07;;;;;;;15.38;9.18;;;;;;;28.90;nan;94832.91;5005772;28;20231;-71
2022/04/06 06:51:34;;;;;;;13.20;8.65;;;;;;;30.76;nan;94837.91;5004728;28;20679;-71
2022/04/06 06:54:01;;;;;;;15.38;9.25;;;;;;;29.77;nan;94823.97;5003805;28;21144;-73
2022/04/06 06:56:28;;;;;;;18.13;10.05;;;;;;;30.61;nan;94819.53;5004892;28;20212;-73
2022/04/06 06:58:55;;;;;;;14.48;8.32;;;;;;;30.34;nan;94831.41;5004669;28;21507;-75
2022/04/06 07:01:22;;;;;;;15.15;9.55;;;;;;;29.20;nan;94830.50;5006705;28;20754;-73
2022/04/06 07:03:49;;;;;;;15.63;9.32;;;;;;;27.75;nan;94827.88;5005357;28;20203;-74
2022/04/06 07:06:17;;;;;;;19.80;11.38;;;;;;;28.24;nan;94833.97;5005996;28;20644;-71
2022/04/06 07:08:44;;;;;;;17.67;10.55;;;;;;;29.49;nan;94835.91;5004750;28;20239;-71
2022/04/06 07:11:11;;;;;;;10.15;9.13;;;;;;;28.59;nan;94830.16;5005130;28;20314;-71
2022/04/06 07:13:38;;;;;;;26.48;10.93;;;;;;;28.08;nan;94831.34;5004269;28;20244;-74
2022/04/06 07:16:06;;;;;;;16.80;9.95;;;;;;;27.80;nan;94832.63;5005020;28;20208;-72
2022/04/06 07:18:33;;;;;;;16.58;9.23;;;;;;;27.75;nan;94833.91;5003818;28;20203;-72
2022/04/06 07:21:00;;;;;;;16.38;9.25;;;;;;;28.95;nan;94833.22;5004779;28;20747;-73
2022/04/06 07:23:29;;;;;;;17.67;9.90;;;;;;;28.26;nan;94829.38;5003842;28;20199;-73
2022/04/06 07:25:56;;;;;;;13.98;8.43;;;;;;;28.48;nan;94819.22;5005224;28;20207;-71
2022/04/06 07:28:22;;;;;;;12.52;9.45;;;;;;;29.05;nan;94818.13;5005048;28;20227;-71
2022/04/06 07:30:49;;;;;;;16.00;8.73;;;;;;;29.07;nan;94831.03;5005064;28;20199;-71
2022/04/06 07:33:16;;;;;;;12.75;8.63;;;;;;;28.81;nan;94831.28;5005120;28;20196;-71
2022/04/06 07:35:43;;;;;;;16.70;9.40;;;;;;;27.72;nan;94829.03;5005354;28;20208;-74
2022/04/06 07:38:12;;;;;;;15.30;9.95;;;;;;;26.75;nan;94828.66;5003279;28;20207;-72
2022/04/06 07:40:41;;;;;;;17.50;9.32;;;;;;;26.85;nan;94836.38;5005532;28;20783;-71
2022/04/06 07:43:09;;;;;;;16.50;9.18;;;;;;;27.71;nan;94827.41;5004640;28;20200;-74
2022/04/06 07:45:35;;;;;;;18.98;8.35;;;;;;;28.05;nan;94816.81;5005340;28;20202;-73
2022/04/06 07:48:04;;;;;;;12.52;8.00;;;;;;;27.05;nan;94840.41;5007289;28;20225;-73
2022/04/06 07:50:31;;;;;;;26.48;7.60;;;;;;;26.97;nan;94830.78;5008436;28;20208;-73
2022/04/06 07:52:57;;;;;;;8.82;7.38;;;;;;;27.25;nan;94830.53;5008847;28;20671;-73
2022/04/06 07:55:24;;;;;;;10.05;7.47;;;;;;;26.25;nan;94834.50;5009431;28;20199;-71
2022/04/06 07:57:52;;;;;;;11.23;8.40;;;;;;;25.27;nan;94838.00;5007845;28;20623;-71
2022/04/06 08:00:20;;;;;;;20.30;10.10;;;;;;;23.32;nan;94836.81;5008455;28;20598;-72
2022/04/06 08:02:48;;;;;;;20.52;9.50;;;;;;;23.07;nan;94833.75;5008906;28;20663;-74
2022/04/06 08:05:15;;;;;;;17.02;9.70;;;;;;;23.19;nan;94836.25;5007747;28;20242;-71
2022/04/06 08:07:44;;;;;;;22.42;9.02;;;;;;;22.54;nan;94829.69;5008307;28;20678;-72
2022/04/06 08:10:12;;;;;;;27.00;9.48;;;;;;;23.28;nan;94830.25;5008468;28;21291;-72
2022/04/06 08:12:39;;;;;;;16.52;8.60;;;;;;;22.53;nan;94826.28;5007902;28;20330;-71
2022/04/06 08:15:09;;;;;;;10.13;8.70;;;;;;;22.03;nan;94835.66;5007945;28;20211;-73
2022/04/06 08:17:37;;;;;;;17.30;10.52;;;;;;;21.45;nan;94834.38;5008277;28;20274;-73
2022/04/06 08:20:05;;;;;;;16.45;9.85;;;;;;;21.24;nan;94811.06;5008574;28;20696;-70
2022/04/06 08:22:33;;;;;;;16.38;10.55;;;;;;;21.17;nan;94825.38;5008917;28;20199;-72
2022/04/06 08:25:00;;;;;;;23.98;15.75;;;;;;;21.51;nan;94829.56;5008534;28;20203;-73
2022/04/06 08:27:28;;;;;;;34.40;20.00;;;;;;;21.46;nan;94831.69;5007919;28;20200;-74
2022/04/06 08:29:54;;;;;;;12.93;8.88;;;;;;;21.89;nan;94828.19;5008208;28;20231;-74
2022/04/06 08:32:23;;;;;;;10.77;8.82;;;;;;;22.26;nan;94821.69;5007131;28;20294;-72
2022/04/06 08:34:50;;;;;;;16.77;10.15;;;;;;;22.09;nan;94830.00;5007792;28;21012;-72
2022/04/06 08:37:17;;;;;;;17.45;8.93;;;;;;;21.62;nan;94828.69;5007548;28;20216;-73
2022/04/06 08:39:43;;;;;;;20.35;13.05;;;;;;;21.66;nan;94827.47;5008182;28;20204;-71
2022/04/06 08:42:11;;;;;;;29.67;10.40;;;;;;;21.46;nan;94816.16;5006782;28;20215;-72
2022/04/06 08:44:39;;;;;;;10.88;8.57;;;;;;;21.82;nan;94806.34;5007216;28;21818;-72
2022/04/06 08:47:07;;;;;;;18.50;9.20;;;;;;;21.42;nan;94814.75;5007091;28;20276;-72
2022/04/06 08:49:36;;;;;;;16.38;9.90;;;;;;;21.24;nan;94817.06;5007948;28;20293;-74
2022/04/06 08:52:04;;;;;;;15.25;8.75;;;;;;;20.80;nan;94810.16;5006591;28;20588;-73
2022/04/06 08:54:32;;;;;;;18.88;9.35;;;;;;;20.74;nan;94804.66;5007009;28;20667;-72
2022/04/06 08:56:59;;;;;;;14.73;9.38;;;;;;;20.50;nan;94802.22;5008056;28;20204;-74
2022/04/06 08:59:26;;;;;;;27.73;11.23;;;;;;;20.58;nan;94807.59;5007199;28;20270;-72
2022/04/06 09:01:53;;;;;;;16.55;10.13;;;;;;;20.24;nan;94793.84;5007251;28;20203;-74
2022/04/06 09:04:21;;;;;;;22.80;9.90;;;;;;;19.93;nan;94800.47;5007171;28;20242;-72
2022/04/06 09:06:49;;;;;;;10.68;9.60;;;;;;;20.38;nan;94801.38;5006064;28;20289;-71
2022/04/06 09:09:22;;;;;;;16.38;9.43;;;;;;;20.78;nan;94804.31;5006930;28;20696;-74
2022/04/06 09:11:49;;;;;;;15.05;7.88;;;;;;;20.42;nan;94801.97;5005090;28;20208;-73
2022/04/06 09:14:16;;;;;;;12.65;8.00;;;;;;;20.16;nan;94786.69;5008530;28;20228;-72
2022/04/06 09:16:43;;;;;;;10.60;7.38;;;;;;;20.10;nan;94781.16;5004455;28;20204;-74
2022/04/06 09:19:11;;;;;;;15.43;7.63;;;;;;;20.59;nan;94798.91;5007252;28;20676;-75
2022/04/06 09:21:42;;;;;;;11.75;7.88;;;;;;;20.77;nan;94792.34;5006931;28;20289;-70
2022/04/06 09:24:18;;;;;;;12.77;8.10;;;;;;;20.69;nan;94785.19;5006844;28;20207;-74
2022/04/06 09:26:44;;;;;;;12.18;7.72;;;;;;;20.44;nan;94776.88;5006499;28;20203;-74
2022/04/06 09:29:14;;;;;;;10.23;7.22;;;;;;;20.03;nan;94775.66;5006684;28;20285;-73
2022/04/06 09:31:41;;;;;;;7.20;5.63;;;;;;;19.88;nan;94775.03;5007001;28;20250;-73
2022/04/06 09:34:13;;;;;;;6.47;5.68;;;;;;;19.98;nan;94767.44;5007770;28;20207;-73
2022/04/06 09:36:40;;;;;;;7.32;5.50;;;;;;;20.11;nan;94751.84;5005838;28;20223;-74
2022/04/06 09:39:07;;;;;;;7.75;5.93;;;;;;;19.97;nan;94765.78;5006317;28;20246;-73
2022/04/06 09:41:59;;;;;;;7.88;5.55;;;;;;;20.23;nan;94768.97;5007384;28;20851;-73
2022/04/06 09:50:12;;;;;;;6.90;5.35;;;;;;;20.66;nan;94754.44;4996852;28;20265;-73
2022/04/06 09:52:39;;;;;;;8.82;4.55;;;;;;;20.91;nan;94753.34;4989090;28;20203;-71
2022/04/06 09:55:08;;;;;;;18.23;10.63;;;;;;;21.14;nan;94727.44;5005382;28;20220;-70
2022/04/06 09:57:45;;;;;;;7.05;6.38;;;;;;;21.48;nan;94741.91;5004742;28;20200;-72
2022/04/06 10:00:17;;;;;;;4.57;4.15;;;;;;;21.47;nan;94729.09;5004109;28;20235;-71
2022/04/06 10:02:46;;;;;;;5.45;4.95;;;;;;;21.12;nan;94739.66;5004851;28;20200;-72
2022/04/06 10:05:14;;;;;;;5.35;4.35;;;;;;;20.68;nan;94731.91;5006277;28;20200;-71
2022/04/06 10:07:43;;;;;;;5.25;4.15;;;;;;;20.55;nan;94726.03;5004368;28;20200;-71
2022/04/06 10:10:11;;;;;;;6.95;4.40;;;;;;;20.66;nan;94731.19;5004842;28;20326;-71
2022/04/06 10:12:40;;;;;;;7.53;4.07;;;;;;;20.78;nan;94721.69;5005062;28;20753;-72
2022/04/06 10:15:07;;;;;;;3.85;3.55;;;;;;;20.44;nan;94714.91;5005281;28;20273;-72
2022/04/06 10:17:36;;;;;;;3.35;3.15;;;;;;;20.55;nan;94720.06;5005175;28;20203;-72
2022/04/06 10:20:19;;;;;;;6.30;3.70;;;;;;;20.75;nan;94711.59;5006658;28;20316;-72
2022/04/06 10:22:58;;;;;;;4.03;3.65;;;;;;;20.24;nan;94711.28;5002407;28;20216;-72
2022/04/06 10:25:31;;;;;;;4.50;3.17;;;;;;;20.32;nan;94703.75;5003831;28;20254;-73
2022/04/06 10:28:05;;;;;;;3.60;2.55;;;;;;;20.56;nan;94704.44;5004949;28;20261;-73
2022/04/06 10:30:32;;;;;;;3.67;3.38;;;;;;;20.68;nan;94705.25;5005819;28;20242;-73
2022/04/06 10:32:59;;;;;;;2.53;2.33;;;;;;;20.57;nan;94695.75;5005308;28;20564;-73
2022/04/06 10:35:31;;;;;;;3.30;3.10;;;;;;;20.38;nan;94693.81;5005145;28;20200;-73
2022/04/06 10:38:18;;;;;;;5.00;2.80;;;;;;;20.40;nan;94698.03;5005390;28;20216;-74
2022/04/06 10:40:59;;;;;;;3.75;2.42;;;;;;;20.53;nan;94696.16;5010929;28;20200;-70
2022/04/06 10:43:52;;;;;;;4.13;2.90;;;;;;;20.53;nan;94686.66;5015432;28;20643;-72
2022/04/06 10:46:38;;;;;;;3.00;2.80;;;;;;;20.72;nan;94660.19;5028917;28;20192;-71
2022/04/06 10:49:15;;;;;;;5.82;3.00;;;;;;;20.99;nan;94672.66;5008219;28;20224;-70
2022/04/06 10:51:43;;;;;;;4.03;3.70;;;;;;;20.96;nan;94670.31;5009928;28;20199;-71
2022/04/06 10:54:44;;;;;;;5.35;3.00;;;;;;;21.06;nan;94664.25;5026253;28;20202;-71
2022/04/06 10:57:11;;;;;;;12.07;6.13;;;;;;;21.06;nan;94653.94;5026429;28;20201;-73
2022/04/06 10:59:39;;;;;;;7.10;4.43;;;;;;;21.03;nan;94658.56;5025510;28;20262;-71
2022/04/06 11:02:17;;;;;;;3.53;3.20;;;;;;;21.12;nan;94659.53;5018212;28;20192;-70
2022/04/06 11:04:44;;;;;;;4.10;3.38;;;;;;;20.91;nan;94659.53;5005271;28;20545;-72
2022/04/06 11:07:13;;;;;;;6.25;3.75;;;;;;;20.52;nan;94651.44;5004863;28;20659;-73
2022/04/06 11:12:26;;;;;;;4.43;3.42;;;;;;;20.37;nan;94658.63;5006592;28;20234;-70
2022/04/06 11:15:22;;;;;;;3.75;3.45;;;;;;;20.58;nan;94648.34;5008504;28;20188;-71
2022/04/06 11:17:48;;;;;;;4.10;3.40;;;;;;;20.68;nan;94645.88;5020300;28;20199;-71
2022/04/06 11:20:17;;;;;;;3.90;3.47;;;;;;;20.83;nan;94646.41;5028907;28;20269;-70
2022/04/06 11:22:45;;;;;;;6.43;4.07;;;;;;;20.97;nan;94633.19;5018231;28;20200;-72
2022/04/06 11:25:14;;;;;;;5.80;3.40;;;;;;;21.03;nan;94625.75;5010286;28;20258;-73
2022/04/06 11:27:42;;;;;;;5.18;3.55;;;;;;;21.02;nan;94616.38;5021146;28;20257;-71
2022/04/06 11:30:12;;;;;;;9.90;4.80;;;;;;;20.68;nan;94623.44;5030179;28;20293;-71
2022/04/06 11:32:43;;;;;;;4.70;3.72;;;;;;;20.69;nan;94619.09;5018627;28;20234;-73
2022/04/06 11:35:11;;;;;;;5.82;3.10;;;;;;;20.73;nan;94609.34;5010492;28;20203;-71
2022/04/06 11:37:42;;;;;;;12.48;3.92;;;;;;;20.68;nan;94609.72;5010633;28;20750;-71
2022/04/06 11:40:10;;;;;;;6.65;3.65;;;;;;;20.94;nan;94610.19;5009803;28;20197;-73
2022/04/06 11:42:37;;;;;;;4.75;4.22;;;;;;;21.00;nan;94613.13;5010127;28;20196;-71
2022/04/06 11:45:05;;;;;;;6.43;3.47;;;;;;;21.05;nan;94595.44;5010798;28;20208;-70
2022/04/06 11:47:33;;;;;;;7.28;3.60;;;;;;;21.05;nan;94599.78;5010302;28;20666;-70
2022/04/06 11:50:04;;;;;;;3.90;3.60;;;;;;;21.20;nan;94587.41;5010479;28;20299;-70
2022/04/06 11:52:30;;;;;;;6.20;3.90;;;;;;;20.99;nan;94584.81;5010285;28;20193;-72
2022/04/06 11:54:58;;;;;;;4.72;4.35;;;;;;;20.98;nan;94589.16;5010705;28;20212;-71
2022/04/06 11:57:35;;;;;;;4.60;3.53;;;;;;;20.85;nan;94588.50;5010101;28;20622;-71
2022/04/06 12:00:05;;;;;;;5.82;4.10;;;;;;;20.68;nan;94586.47;5010682;28;20200;-71
2022/04/06 12:02:47;;;;;;;6.22;3.95;;;;;;;20.87;nan;94576.28;5010215;28;20196;-71
2022/04/06 12:05:15;;;;;;;5.97;3.67;;;;;;;20.91;nan;94580.28;5010577;28;20204;-71